»·PEaware :: N637GY KFUL-KDAG

N637GY :: KFUL-KDAG

FLIGHT INFORMATION

Flight Status: Arrived
Operator: Privately registered:
United States
More flights under this callsign
Pilot: James B. (24167)
Aircraft: CIRRUS SR-20
(SR20)
More flights by this aircraft type
Origin: KFUL Fullerton Mun
United States
Destination: KDAG Barstow-Daggett
United States
More flights between these airports :: More routes between these airports
Route: +SLI V8 PDZ V442 APLES V394 DAG
File this flight plan on PilotEdge
Remarks:
Altitude:
(Current/Filed)
11,000ft
Speed:
(Current/Filed)
140kts
Departed: 05-Aug-19 09:46 AM
Arrived: 05-Aug-19 10:48 AM
Distance/Time
Traveled:
83nm/1:02
Distance/Time
To Go:
Arrived

Flight Plot

Page will automatically refresh every two minutes.


Map Options




Map Legend


Flown Route
Filed Route
Departure Airport
Arrival Airport
Navaid (VOR, NDB)
Fix

Horizontal Profiles

Position Reports

Time Latitude Longitude Heading Altitude Ground
Speed
05-Aug-19 09:24 33.870683 -117.981541 260 90ft 0kts
05-Aug-19 09:25 33.870683 -117.981541 260 90ft 0kts
05-Aug-19 09:26 33.870683 -117.981541 260 90ft 0kts
05-Aug-19 09:27 33.870683 -117.981541 260 90ft 0kts
05-Aug-19 09:28 33.870683 -117.981541 260 90ft 0kts
05-Aug-19 09:29 33.870683 -117.981541 260 90ft 0kts
05-Aug-19 09:30 33.870683 -117.981541 260 90ft 0kts
05-Aug-19 09:31 33.870683 -117.981541 260 90ft 0kts
05-Aug-19 09:32 33.870683 -117.981541 260 90ft 0kts
05-Aug-19 09:33 33.870683 -117.981541 260 90ft 0kts
05-Aug-19 09:34 33.870683 -117.981541 260 90ft 0kts
05-Aug-19 09:35 33.870683 -117.981541 260 90ft 0kts
05-Aug-19 09:36 33.870707 -117.981633 312 90ft 2kts
05-Aug-19 09:37 33.870964 -117.981780 254 90ft 0kts
05-Aug-19 09:38 33.870964 -117.981779 255 90ft 0kts
05-Aug-19 09:39 33.870964 -117.981779 255 90ft 0kts
05-Aug-19 09:40 33.870964 -117.981779 255 90ft 0kts
05-Aug-19 09:41 33.871179 -117.981794 53 90ft 4kts
05-Aug-19 09:42 33.871666 -117.979458 76 93ft 8kts
05-Aug-19 09:43 33.872278 -117.976334 73 97ft 9kts
05-Aug-19 09:44 33.872953 -117.974843 319 97ft 4kts
05-Aug-19 09:45 33.868545 -117.996067 253 481ft 96kts
05-Aug-19 09:46 33.848323 -117.990624 130 1321ft 104kts
05-Aug-19 09:47 33.829560 -117.964858 131 2220ft 103kts
05-Aug-19 09:48 33.820801 -117.934798 72 3051ft 104kts
05-Aug-19 09:49 33.829660 -117.901263 69 3820ft 106kts
05-Aug-19 09:50 33.839470 -117.867371 71 4548ft 108kts
05-Aug-19 09:51 33.848823 -117.833004 69 5227ft 109kts
05-Aug-19 09:52 33.859119 -117.798407 75 5878ft 110kts
05-Aug-19 09:53 33.865275 -117.762306 81 6500ft 110kts
05-Aug-19 09:54 33.874309 -117.726448 71 7059ft 114kts
05-Aug-19 09:55 33.883337 -117.689905 82 7611ft 113kts
05-Aug-19 09:56 33.889899 -117.652820 71 8130ft 115kts
05-Aug-19 09:57 33.900229 -117.616359 81 8629ft 113kts
05-Aug-19 09:58 33.906764 -117.578538 78 8999ft 123kts
05-Aug-19 09:59 33.918852 -117.536984 58 9044ft 139kts
05-Aug-19 10:00 33.950781 -117.510489 25 8997ft 146kts
05-Aug-19 10:01 33.987417 -117.490557 25 8999ft 144kts
05-Aug-19 10:02 34.022496 -117.467284 28 8997ft 144kts
05-Aug-19 10:03 34.056702 -117.444290 29 9360ft 129kts
05-Aug-19 10:04 34.087656 -117.425013 24 9934ft 123kts
05-Aug-19 10:05 34.118889 -117.407191 27 10326ft 124kts
05-Aug-19 10:06 34.150020 -117.387976 27 10695ft 125kts
05-Aug-19 10:07 34.181286 -117.368419 27 11001ft 131kts
05-Aug-19 10:08 34.215420 -117.348471 27 11014ft 140kts
05-Aug-19 10:09 34.251218 -117.327415 24 11007ft 144kts
05-Aug-19 10:10 34.287659 -117.306476 26 11005ft 144kts
05-Aug-19 10:11 34.323360 -117.284335 26 11003ft 144kts
05-Aug-19 10:12 34.359282 -117.262253 27 10984ft 141kts
05-Aug-19 10:13 34.394736 -117.240948 24 10989ft 145kts
05-Aug-19 10:14 34.431339 -117.220805 23 11032ft 144kts
05-Aug-19 10:15 34.468385 -117.201172 22 11023ft 147kts
05-Aug-19 10:16 34.506554 -117.181858 23 11012ft 147kts
05-Aug-19 10:17 34.542781 -117.159163 29 11002ft 147kts
05-Aug-19 10:18 34.575594 -117.129542 46 10993ft 146kts
05-Aug-19 10:19 34.603219 -117.093323 49 10982ft 146kts
05-Aug-19 10:20 34.630402 -117.056671 51 10980ft 145kts
05-Aug-19 10:21 34.658137 -117.020526 45 10920ft 149kts
05-Aug-19 10:22 34.687136 -116.985150 45 10913ft 147kts
05-Aug-19 10:23 34.715941 -116.949976 49 10893ft 147kts
05-Aug-19 10:24 34.743277 -116.912510 53 10862ft 147kts
05-Aug-19 10:25 34.767668 -116.872832 56 10854ft 145kts
05-Aug-19 10:26 34.790722 -116.832433 58 10830ft 145kts
05-Aug-19 10:27 34.816530 -116.794186 48 10817ft 146kts
05-Aug-19 10:28 34.845018 -116.758780 48 10685ft 146kts
05-Aug-19 10:29 34.873275 -116.721452 51 9991ft 150kts
05-Aug-19 10:30 34.898297 -116.681264 56 9253ft 148kts
05-Aug-19 10:31 34.921600 -116.640241 58 8439ft 147kts
05-Aug-19 10:32 34.943757 -116.598531 54 7616ft 146kts
05-Aug-19 10:33 34.970218 -116.561582 73 6830ft 145kts
05-Aug-19 10:34 34.981257 -116.514525 74 6158ft 142kts
05-Aug-19 10:35 35.005468 -116.510437 266 5533ft 107kts
05-Aug-19 10:36 34.986048 -116.533562 224 5154ft 96kts
05-Aug-19 10:37 34.969724 -116.560152 242 5161ft 97kts
05-Aug-19 10:38 34.958023 -116.590076 239 4782ft 98kts
05-Aug-19 10:39 34.942095 -116.617148 240 4300ft 98kts
05-Aug-19 10:40 34.928406 -116.645595 239 3853ft 98kts
05-Aug-19 10:41 34.915235 -116.671646 238 3685ft 86kts
05-Aug-19 10:42 34.902463 -116.697186 240 3441ft 89kts
05-Aug-19 10:43 34.889624 -116.723027 242 3014ft 89kts
05-Aug-19 10:44 34.878193 -116.749290 228 2640ft 83kts
05-Aug-19 10:45 34.855484 -116.753328 230 2290ft 75kts
05-Aug-19 10:46 34.851464 -116.776890 271 1923ft 68kts
05-Aug-19 10:47 34.852139 -116.788314 319 1919ft 7kts
05-Aug-19 10:48 34.853106 -116.789302 321 1920ft 5kts
05-Aug-19 10:49 34.854903 -116.791061 322 1920ft 9kts
05-Aug-19 10:50 34.856541 -116.790761 269 1919ft 0kts
05-Aug-19 10:51 34.856541 -116.790761 269 1919ft 0kts
05-Aug-19 10:52 34.856541 -116.790761 269 1919ft 0kts
05-Aug-19 10:53 34.856541 -116.790761 269 1919ft 0kts
05-Aug-19 10:54 34.856541 -116.790761 269 1919ft 0kts
05-Aug-19 10:56 34.856541 -116.790761 269 1919ft 0kts
05-Aug-19 10:57 34.856541 -116.790761 269 1919ft 0kts
05-Aug-19 10:58 34.856541 -116.790761 269 1919ft 0kts
05-Aug-19 10:59 34.856541 -116.790761 269 1919ft 0kts
05-Aug-19 11:00 34.856541 -116.790761 269 1919ft 0kts
05-Aug-19 11:01 34.856541 -116.790761 269 1919ft 0kts
05-Aug-19 11:02 34.856541 -116.790761 269 1919ft 0kts
05-Aug-19 11:03 34.856541 -116.790761 269 1919ft 0kts

Navigation Log

Ident Type
Flight plan parsing failed, navigation log unavailable